createdAt,value
2017-07-08T00:01:34.274Z,58.20
2017-07-08T00:04:00.317Z,58.20
2017-07-08T00:06:26.358Z,58.70
2017-07-08T00:08:52.407Z,58.50
2017-07-08T00:11:18.463Z,58.70
2017-07-08T00:13:44.544Z,58.80
2017-07-08T00:16:10.605Z,59.00
2017-07-08T00:18:36.653Z,59.00
2017-07-08T00:21:02.702Z,58.90
2017-07-08T00:23:28.771Z,58.80
2017-07-08T00:25:54.827Z,58.80
2017-07-08T00:28:20.899Z,58.70
2017-07-08T00:30:46.947Z,58.80
2017-07-08T00:33:13.009Z,58.40
2017-07-08T00:35:39.072Z,59.10
2017-07-08T00:38:05.163Z,59.00
2017-07-08T00:40:31.227Z,59.60
2017-07-08T00:42:58.015Z,59.30
2017-07-08T00:45:24.083Z,59.30
2017-07-08T00:47:50.136Z,58.60
2017-07-08T00:50:16.212Z,59.10
2017-07-08T00:52:42.282Z,58.10
2017-07-08T00:55:08.357Z,58.80
2017-07-08T00:57:34.391Z,58.10
2017-07-08T01:00:00.443Z,59.20
2017-07-08T01:02:26.507Z,59.10
2017-07-08T01:04:52.567Z,59.10
2017-07-08T01:07:18.629Z,59.60
2017-07-08T01:09:44.695Z,60.10
2017-07-08T01:12:10.802Z,60.40
2017-07-08T01:14:36.855Z,60.40
2017-07-08T01:38:48.539Z,60.90
2017-07-08T01:41:14.660Z,60.90
2017-07-08T01:43:40.762Z,60.60
2017-07-08T01:46:06.827Z,60.70
2017-07-08T01:48:32.907Z,61.00
2017-07-08T01:50:58.984Z,60.70
2017-07-08T01:53:25.798Z,61.10
2017-07-08T01:55:51.871Z,61.20
2017-07-08T01:58:17.956Z,60.60
2017-07-08T02:00:44.020Z,59.80
2017-07-08T02:03:10.107Z,60.90
2017-07-08T02:05:36.185Z,60.10
2017-07-08T02:08:02.261Z,60.50
2017-07-08T02:10:28.318Z,59.70
2017-07-08T02:12:54.373Z,60.40
2017-07-08T02:15:20.451Z,59.90
2017-07-08T02:17:46.522Z,60.00
2017-07-08T02:20:12.578Z,60.20
2017-07-08T02:22:38.635Z,60.20
2017-07-08T02:25:04.715Z,60.00
2017-07-08T02:27:30.782Z,59.40
2017-07-08T02:29:56.831Z,59.90
2017-07-08T02:32:22.879Z,59.70
2017-07-08T02:34:48.934Z,59.10
2017-07-08T02:37:15.003Z,60.00
2017-07-08T02:39:41.063Z,60.70
2017-07-08T02:42:07.122Z,60.10
2017-07-08T02:44:33.186Z,60.20
2017-07-08T02:46:59.259Z,60.60
2017-07-08T02:49:25.342Z,60.10
2017-07-08T02:51:51.413Z,60.50
2017-07-08T02:54:17.471Z,61.30
2017-07-08T02:56:43.530Z,60.60
2017-07-08T02:59:09.595Z,60.80
2017-07-08T03:01:35.662Z,60.90
2017-07-08T03:04:01.723Z,60.30
2017-07-08T03:06:27.774Z,60.20
2017-07-08T03:08:53.831Z,60.00
2017-07-08T03:11:19.896Z,60.30
2017-07-08T03:13:45.951Z,60.50
2017-07-08T03:16:12.008Z,59.80
2017-07-08T03:18:38.068Z,60.40
2017-07-08T03:21:04.887Z,60.40
2017-07-08T03:23:30.972Z,60.30
2017-07-08T03:25:57.035Z,60.50
2017-07-08T03:28:23.109Z,61.20
2017-07-08T03:30:49.182Z,61.50
2017-07-08T03:33:15.265Z,60.60
2017-07-08T03:35:56.326Z,61.40
2017-07-08T03:38:22.403Z,60.80
2017-07-08T03:40:48.481Z,61.50
2017-07-08T03:43:14.550Z,61.80
2017-07-08T03:45:40.622Z,61.00
2017-07-08T03:48:06.711Z,61.60
2017-07-08T03:50:32.789Z,61.80
2017-07-08T03:52:58.857Z,61.80
2017-07-08T03:55:24.969Z,62.00
2017-07-08T03:57:51.039Z,62.20
2017-07-08T04:00:17.098Z,61.80
2017-07-08T04:02:43.171Z,61.40
2017-07-08T04:05:09.218Z,61.40
2017-07-08T04:07:35.291Z,61.30
2017-07-08T04:10:01.354Z,61.30
2017-07-08T04:12:27.423Z,61.40
2017-07-08T04:14:53.496Z,61.60
2017-07-08T04:17:19.561Z,61.70
2017-07-08T04:19:46.364Z,61.80
2017-07-08T04:22:12.420Z,61.80
2017-07-08T04:24:38.483Z,61.80
2017-07-08T04:27:04.539Z,61.90
2017-07-08T04:29:30.587Z,61.50
2017-07-08T04:31:56.650Z,61.80
2017-07-08T04:34:22.713Z,61.50
2017-07-08T04:36:48.779Z,61.60
2017-07-08T04:39:15.567Z,61.50
2017-07-08T04:41:41.643Z,61.60
2017-07-08T04:44:07.700Z,61.80
2017-07-08T04:46:33.765Z,61.90
2017-07-08T04:48:59.814Z,61.40
2017-07-08T04:51:25.855Z,61.80
2017-07-08T04:53:52.656Z,61.90
2017-07-08T04:56:18.727Z,61.90
2017-07-08T04:58:44.772Z,62.40
2017-07-08T05:01:10.840Z,62.90
2017-07-08T05:03:36.895Z,62.50
2017-07-08T05:06:02.947Z,62.30
2017-07-08T05:08:29.034Z,62.30
2017-07-08T05:10:55.179Z,61.90
2017-07-08T05:13:21.394Z,61.80
2017-07-08T05:15:47.471Z,61.20
2017-07-08T05:18:13.538Z,61.40
2017-07-08T05:20:39.595Z,61.20
2017-07-08T05:23:06.719Z,61.40
2017-07-08T05:25:32.787Z,61.10
2017-07-08T05:27:58.856Z,61.10
2017-07-08T05:30:24.934Z,61.40
2017-07-08T05:32:50.996Z,60.70
2017-07-08T05:35:17.071Z,60.60
2017-07-08T05:37:43.890Z,62.00
2017-07-08T05:40:09.980Z,61.10
2017-07-08T05:42:36.054Z,60.70
2017-07-08T05:45:02.130Z,60.50
2017-07-08T05:47:28.196Z,61.10
2017-07-08T05:49:54.259Z,61.00
2017-07-08T05:52:20.367Z,60.90
2017-07-08T05:54:47.180Z,60.80
2017-07-08T05:57:13.266Z,60.80
2017-07-08T05:59:39.333Z,60.80
2017-07-08T06:02:05.437Z,60.20
2017-07-08T06:04:31.524Z,60.10
2017-07-08T06:06:58.334Z,61.80
2017-07-08T06:09:24.446Z,61.10
2017-07-08T06:11:50.522Z,61.20
2017-07-08T06:14:17.319Z,61.70
2017-07-08T06:16:43.385Z,60.80
2017-07-08T06:19:09.466Z,60.20
2017-07-08T06:21:35.584Z,60.60
2017-07-08T06:24:01.638Z,60.40
2017-07-08T06:26:27.699Z,60.40
2017-07-08T06:28:53.770Z,60.30
2017-07-08T06:31:19.851Z,60.50
2017-07-08T06:33:45.914Z,60.30
2017-07-08T06:36:12.018Z,59.60
2017-07-08T06:38:38.095Z,60.00
2017-07-08T06:41:04.138Z,59.70
2017-07-08T06:43:30.205Z,58.80
2017-07-08T06:45:56.266Z,59.30
2017-07-08T06:48:22.367Z,59.40
2017-07-08T06:50:48.434Z,59.10
2017-07-08T06:53:14.491Z,58.50
2017-07-08T06:55:40.583Z,58.70
2017-07-08T06:58:06.667Z,58.50
2017-07-08T07:00:32.736Z,58.80
2017-07-08T07:02:58.810Z,58.10
2017-07-08T07:05:24.873Z,58.50
2017-07-08T07:07:50.929Z,58.60
2017-07-08T07:10:16.991Z,58.70
2017-07-08T07:12:43.042Z,58.90
2017-07-08T07:15:09.110Z,58.90
2017-07-08T07:17:50.175Z,58.70
2017-07-08T07:20:16.227Z,58.90
2017-07-08T07:22:42.329Z,58.80
2017-07-08T07:25:08.413Z,58.90
2017-07-08T07:27:34.493Z,58.90
2017-07-08T07:30:00.574Z,58.90
2017-07-08T07:32:26.638Z,58.90
2017-07-08T07:34:52.710Z,58.80
2017-07-08T07:37:18.782Z,58.80
2017-07-08T07:39:44.849Z,59.10
2017-07-08T07:42:10.906Z,58.80
2017-07-08T07:44:36.984Z,58.70
2017-07-08T07:47:03.054Z,58.70
2017-07-08T07:49:29.148Z,58.70
2017-07-08T07:51:55.206Z,58.60
2017-07-08T07:54:21.273Z,58.60
2017-07-08T07:56:47.362Z,58.20
2017-07-08T07:59:13.455Z,58.20
2017-07-08T08:01:39.531Z,58.20
2017-07-08T08:04:05.602Z,58.40
2017-07-08T08:06:31.696Z,58.00
2017-07-08T08:08:57.803Z,58.10
2017-07-08T08:11:23.878Z,58.20
2017-07-08T08:13:49.971Z,57.60
2017-07-08T08:16:31.010Z,57.40
2017-07-08T08:18:57.086Z,57.50
2017-07-08T08:21:23.193Z,57.80
2017-07-08T08:23:49.251Z,57.40
2017-07-08T08:26:15.310Z,56.50
2017-07-08T08:28:41.382Z,57.40
2017-07-08T08:31:07.471Z,56.40
2017-07-08T08:33:33.550Z,56.60
2017-07-08T08:35:59.604Z,56.70
2017-07-08T08:38:26.419Z,56.50
2017-07-08T08:40:52.488Z,56.50
2017-07-08T08:43:18.557Z,56.10
2017-07-08T08:45:44.621Z,55.60
2017-07-08T08:48:10.682Z,54.70
2017-07-08T08:50:36.764Z,54.80
2017-07-08T08:53:02.829Z,55.30
2017-07-08T08:55:28.920Z,55.40
2017-07-08T08:57:54.997Z,54.70
2017-07-08T09:00:21.053Z,55.00
2017-07-08T09:02:47.107Z,55.00
2017-07-08T09:05:13.173Z,54.90
2017-07-08T09:07:39.251Z,55.00
2017-07-08T09:10:05.306Z,52.70
2017-07-08T09:12:31.433Z,54.50
2017-07-08T09:14:57.521Z,54.20
2017-07-08T09:17:23.586Z,54.30
2017-07-08T09:19:49.647Z,54.60
2017-07-08T09:22:15.715Z,54.40
2017-07-08T09:24:41.776Z,54.50
2017-07-08T09:27:07.851Z,54.20
2017-07-08T09:29:33.931Z,54.20
2017-07-08T09:32:00.000Z,54.30
2017-07-08T09:34:26.092Z,54.20
2017-07-08T09:36:52.174Z,54.10
2017-07-08T09:39:18.247Z,54.10
2017-07-08T09:41:44.310Z,53.90
2017-07-08T09:44:10.399Z,54.00
2017-07-08T09:46:36.460Z,53.80
2017-07-08T09:49:02.529Z,53.30
2017-07-08T09:51:28.593Z,53.90
2017-07-08T09:53:54.702Z,53.00
2017-07-08T09:56:20.754Z,53.20
2017-07-08T09:58:46.834Z,53.50
2017-07-08T10:01:12.904Z,53.30
2017-07-08T10:03:38.974Z,53.20
2017-07-08T10:06:05.783Z,53.20
2017-07-08T10:08:31.856Z,53.10
2017-07-08T10:10:57.922Z,53.30
2017-07-08T10:13:23.982Z,52.90
2017-07-08T10:15:50.035Z,52.80
2017-07-08T10:18:16.101Z,52.70
2017-07-08T10:20:42.166Z,52.80
2017-07-08T10:23:08.225Z,52.80
2017-07-08T10:25:34.286Z,52.60
2017-07-08T10:28:00.377Z,52.60
2017-07-08T10:30:26.445Z,52.50
2017-07-08T10:32:52.875Z,52.10
2017-07-08T10:35:18.930Z,52.30
2017-07-08T10:37:44.975Z,52.00
2017-07-08T10:40:11.036Z,52.20
2017-07-08T10:42:37.107Z,52.00
2017-07-08T10:45:03.219Z,51.90
2017-07-08T10:47:29.263Z,52.00
2017-07-08T10:49:56.081Z,51.90
2017-07-08T10:52:22.182Z,52.00
2017-07-08T10:55:03.211Z,51.80
2017-07-08T10:57:29.282Z,51.60
2017-07-08T10:59:55.371Z,51.70
2017-07-08T11:02:21.443Z,51.70
2017-07-08T11:04:47.497Z,51.40
2017-07-08T11:07:13.548Z,51.70
2017-07-08T11:09:39.648Z,51.70
2017-07-08T11:12:05.705Z,51.70
2017-07-08T11:14:32.523Z,51.70
2017-07-08T11:17:13.549Z,51.60
2017-07-08T11:19:39.615Z,51.60
2017-07-08T11:22:20.637Z,51.60
2017-07-08T11:24:46.730Z,51.60
2017-07-08T11:27:12.794Z,52.30
2017-07-08T11:29:38.851Z,51.70
2017-07-08T11:32:04.918Z,51.60
2017-07-08T11:34:30.987Z,51.60
2017-07-08T11:36:57.039Z,51.70
2017-07-08T11:39:23.090Z,51.70
2017-07-08T11:41:49.159Z,51.70
2017-07-08T11:44:15.228Z,51.60
2017-07-08T11:46:41.280Z,51.70
2017-07-08T11:49:07.342Z,51.60
2017-07-08T11:51:33.413Z,51.70
2017-07-08T11:53:59.483Z,51.70
2017-07-08T11:56:25.566Z,51.60
2017-07-08T11:58:51.619Z,51.60
2017-07-08T12:01:17.691Z,51.60
2017-07-08T12:03:43.749Z,51.60
2017-07-08T12:06:09.818Z,51.50
2017-07-08T12:08:35.882Z,51.60
2017-07-08T12:11:01.934Z,51.60
2017-07-08T12:13:27.989Z,51.60
2017-07-08T12:15:54.048Z,51.60
2017-07-08T12:18:20.099Z,51.60
2017-07-08T12:20:46.155Z,51.60
2017-07-08T12:23:12.207Z,51.60
2017-07-08T12:25:38.300Z,51.70
2017-07-08T12:28:19.327Z,51.70
2017-07-08T12:30:45.389Z,51.80
2017-07-08T12:33:11.443Z,51.70
2017-07-08T12:35:37.495Z,51.80
2017-07-08T12:38:03.553Z,51.90
2017-07-08T12:40:29.615Z,51.80
2017-07-08T12:42:56.414Z,51.80
2017-07-08T12:45:22.482Z,51.80
2017-07-08T12:47:48.527Z,51.70
2017-07-08T12:50:14.600Z,51.70
2017-07-08T12:52:40.662Z,52.30
2017-07-08T12:55:06.744Z,51.70
2017-07-08T12:57:32.803Z,51.70
2017-07-08T12:59:58.855Z,51.70
2017-07-08T13:02:24.929Z,51.70
2017-07-08T13:04:50.996Z,51.60
2017-07-08T13:07:17.783Z,51.60
2017-07-08T13:09:43.835Z,51.50
2017-07-08T13:12:09.903Z,51.50
2017-07-08T13:14:35.974Z,51.50
2017-07-08T13:17:02.034Z,51.40
2017-07-08T13:19:28.082Z,51.40
2017-07-08T13:21:54.134Z,51.40
2017-07-08T13:24:20.187Z,51.30
2017-07-08T13:26:46.244Z,51.40
2017-07-08T13:29:12.312Z,51.30
2017-07-08T13:31:38.409Z,51.30
2017-07-08T13:34:04.475Z,51.20
2017-07-08T13:36:30.537Z,51.10
2017-07-08T13:38:56.592Z,51.00
2017-07-08T13:41:22.659Z,50.90
2017-07-08T13:43:48.736Z,51.00
2017-07-08T13:46:14.798Z,50.90
2017-07-08T13:48:40.858Z,51.10
2017-07-08T13:51:06.923Z,50.90
2017-07-08T13:53:32.991Z,50.80
2017-07-08T13:55:59.064Z,50.80
2017-07-08T13:58:25.878Z,50.60
2017-07-08T14:00:51.927Z,50.60
2017-07-08T14:03:18.018Z,50.50
2017-07-08T14:05:44.080Z,50.50
2017-07-08T14:08:10.139Z,50.40
2017-07-08T14:10:36.206Z,50.30
2017-07-08T14:13:02.282Z,50.20
2017-07-08T14:15:28.349Z,50.30
2017-07-08T14:17:54.412Z,50.10
2017-07-08T14:20:20.503Z,50.10
2017-07-08T14:22:46.585Z,50.00
2017-07-08T14:25:12.655Z,50.10
2017-07-08T14:27:38.743Z,50.10
2017-07-08T14:30:04.817Z,50.00
2017-07-08T14:32:30.878Z,49.90
2017-07-08T14:34:56.954Z,49.80
2017-07-08T14:37:23.035Z,49.90
2017-07-08T14:39:49.125Z,49.60
2017-07-08T14:42:15.174Z,49.60
2017-07-08T14:44:41.242Z,49.40
2017-07-08T14:47:07.308Z,49.40
2017-07-08T14:49:33.372Z,49.40
2017-07-08T14:51:59.436Z,49.30
2017-07-08T14:54:25.504Z,49.40
2017-07-08T14:56:52.675Z,48.90
2017-07-08T14:59:18.747Z,48.80
2017-07-08T15:01:44.807Z,48.80
2017-07-08T15:04:11.620Z,48.70
2017-07-08T15:06:37.679Z,48.60
2017-07-08T15:09:03.759Z,48.30
2017-07-08T15:11:29.827Z,48.10
2017-07-08T15:13:55.890Z,48.50
2017-07-08T15:16:21.943Z,47.90
2017-07-08T15:18:47.987Z,47.70
2017-07-08T15:21:14.054Z,47.60
2017-07-08T15:23:40.116Z,47.60
2017-07-08T15:26:06.176Z,47.50
2017-07-08T15:28:32.230Z,47.60
2017-07-08T15:30:58.295Z,47.30
2017-07-08T15:33:24.351Z,47.10
2017-07-08T15:35:50.411Z,47.10
2017-07-08T15:38:16.468Z,47.10
2017-07-08T15:40:42.550Z,47.00
2017-07-08T15:43:08.611Z,46.80
2017-07-08T15:45:34.676Z,47.30
2017-07-08T15:48:00.743Z,47.70
2017-07-08T15:50:26.806Z,47.30
2017-07-08T15:52:52.867Z,47.50
2017-07-08T15:55:19.667Z,47.00
2017-07-08T15:58:00.730Z,47.20
2017-07-08T16:00:26.779Z,47.50
2017-07-08T16:02:52.835Z,47.20
2017-07-08T16:05:18.897Z,47.20
2017-07-08T16:07:44.965Z,47.10
2017-07-08T16:10:11.016Z,47.40
2017-07-08T16:12:37.111Z,47.40
2017-07-08T16:15:03.171Z,47.20
2017-07-08T16:17:29.262Z,47.40
2017-07-08T16:19:55.347Z,47.40
2017-07-08T16:22:21.406Z,47.20
2017-07-08T16:24:47.478Z,47.10
2017-07-08T16:27:13.539Z,47.10
2017-07-08T16:29:39.599Z,47.00
2017-07-08T16:32:05.671Z,47.70
2017-07-08T16:34:31.723Z,47.50
2017-07-08T16:36:57.795Z,46.90
2017-07-08T16:39:23.876Z,46.90
2017-07-08T16:41:49.979Z,46.60
2017-07-08T16:44:31.055Z,46.70
2017-07-08T16:46:57.133Z,46.70
2017-07-08T16:49:23.198Z,46.30
2017-07-08T16:51:50.001Z,46.50
2017-07-08T16:54:16.092Z,46.50
2017-07-08T16:56:42.182Z,46.40
2017-07-08T16:59:08.241Z,46.90
2017-07-08T17:01:34.307Z,46.40
2017-07-08T17:04:00.365Z,46.50
2017-07-08T17:06:26.450Z,46.50
2017-07-08T17:08:52.510Z,46.40
2017-07-08T17:11:18.605Z,46.40
2017-07-08T17:13:44.663Z,46.40
2017-07-08T17:16:10.726Z,46.30
2017-07-08T17:18:36.830Z,46.30
2017-07-08T17:21:02.913Z,46.30
2017-07-08T17:23:28.963Z,46.10
2017-07-08T17:26:09.986Z,46.30
2017-07-08T17:28:36.127Z,46.10
2017-07-08T17:31:02.191Z,46.20
2017-07-08T17:33:28.254Z,46.20
2017-07-08T17:35:54.332Z,46.30
2017-07-08T17:38:23.187Z,46.50
2017-07-08T17:40:49.250Z,46.40
2017-07-08T17:43:15.307Z,46.50
2017-07-08T17:45:42.115Z,46.50
2017-07-08T17:48:08.169Z,46.50
2017-07-08T17:50:34.235Z,46.50
2017-07-08T17:53:00.292Z,46.60
2017-07-08T17:55:41.304Z,46.50
2017-07-08T17:58:07.359Z,46.70
2017-07-08T18:00:33.421Z,46.70
2017-07-08T18:02:59.473Z,47.40
2017-07-08T18:05:25.533Z,46.80
2017-07-08T18:07:51.585Z,47.50
2017-07-08T18:10:17.644Z,46.90
2017-07-08T18:12:43.713Z,47.00
2017-07-08T18:15:09.881Z,47.10
2017-07-08T18:17:35.942Z,47.10
2017-07-08T18:20:02.062Z,47.10
2017-07-08T18:22:28.126Z,47.30
2017-07-08T18:24:54.200Z,47.40
2017-07-08T18:27:20.264Z,47.40
2017-07-08T18:29:46.327Z,47.40
2017-07-08T18:32:12.403Z,47.50
2017-07-08T18:34:38.471Z,47.50
2017-07-08T18:37:04.550Z,47.50
2017-07-08T18:39:30.606Z,47.60
2017-07-08T18:41:56.663Z,47.60
2017-07-08T18:44:22.734Z,47.70
2017-07-08T18:46:49.547Z,47.40
2017-07-08T18:49:15.598Z,47.70
2017-07-08T18:51:41.651Z,47.80
2017-07-08T18:54:07.752Z,47.70
2017-07-08T18:56:33.823Z,47.90
2017-07-08T18:58:59.898Z,47.90
2017-07-08T19:01:25.985Z,48.00
2017-07-08T19:03:52.051Z,48.00
2017-07-08T19:06:18.120Z,48.00
2017-07-08T19:08:44.213Z,48.00
2017-07-08T19:11:10.286Z,48.00
2017-07-08T19:13:36.336Z,48.00
2017-07-08T19:16:02.393Z,48.10
2017-07-08T19:18:28.462Z,48.20
2017-07-08T19:20:54.530Z,48.10
2017-07-08T19:23:20.594Z,48.10
2017-07-08T19:25:46.702Z,48.20
2017-07-08T19:28:12.800Z,48.20
2017-07-08T19:30:38.855Z,48.20
2017-07-08T19:33:04.899Z,48.20
2017-07-08T19:35:30.977Z,48.20
2017-07-08T19:37:57.031Z,48.30
2017-07-08T19:40:23.837Z,48.30
2017-07-08T19:42:49.932Z,48.40
2017-07-08T19:45:15.991Z,48.40
2017-07-08T19:47:42.043Z,48.50
2017-07-08T19:50:08.102Z,48.40
2017-07-08T19:52:34.150Z,48.50
2017-07-08T19:55:00.198Z,48.60
2017-07-08T19:57:26.265Z,48.60
2017-07-08T19:59:53.067Z,48.80
2017-07-08T20:02:19.154Z,48.70
2017-07-08T20:04:45.216Z,48.60
2017-07-08T20:07:11.270Z,48.70
2017-07-08T20:09:37.364Z,48.70
2017-07-08T20:12:03.434Z,48.80
2017-07-08T20:14:29.507Z,48.80
2017-07-08T20:16:55.572Z,48.80
2017-07-08T20:19:21.632Z,48.80
2017-07-08T20:21:47.768Z,48.80
2017-07-08T20:24:13.846Z,48.90
2017-07-08T20:26:39.905Z,49.10
2017-07-08T20:29:05.985Z,49.10
2017-07-08T20:31:32.046Z,49.30
2017-07-08T20:33:58.097Z,49.30
2017-07-08T20:36:24.162Z,49.40
2017-07-08T20:38:50.239Z,49.50
2017-07-08T20:41:16.320Z,50.30
2017-07-08T20:43:42.398Z,49.90
2017-07-08T20:46:08.465Z,49.90
2017-07-08T20:48:34.594Z,50.00
2017-07-08T20:51:15.612Z,49.90
2017-07-08T20:53:41.702Z,50.00
2017-07-08T20:56:07.775Z,50.20
2017-07-08T20:58:48.826Z,50.20
2017-07-08T21:01:14.882Z,50.10
2017-07-08T21:03:40.956Z,49.70
2017-07-08T21:06:07.030Z,50.00
2017-07-08T21:08:33.174Z,50.00
2017-07-08T21:10:59.240Z,49.70
2017-07-08T21:13:25.357Z,50.00
2017-07-08T21:15:51.418Z,50.00
2017-07-08T21:18:17.488Z,50.10
2017-07-08T21:20:43.550Z,50.10
2017-07-08T21:23:09.607Z,50.10
2017-07-08T21:25:35.681Z,50.20
2017-07-08T21:28:01.768Z,50.20
2017-07-08T21:30:59.013Z,50.40
2017-07-08T21:33:25.080Z,50.60
2017-07-08T21:35:51.915Z,50.70
2017-07-08T21:38:17.993Z,50.60
2017-07-08T21:40:44.055Z,50.50
2017-07-08T21:43:10.118Z,50.60
2017-07-08T21:45:36.174Z,50.50
2017-07-08T21:48:02.241Z,50.50
2017-07-08T21:50:28.365Z,50.60
2017-07-08T21:52:54.373Z,50.70
2017-07-08T21:55:21.172Z,50.80
2017-07-08T21:57:47.257Z,51.30
2017-07-08T22:00:13.339Z,50.70
2017-07-08T22:02:39.392Z,50.50
2017-07-08T22:05:20.426Z,50.80
2017-07-08T22:07:46.486Z,50.80
2017-07-08T22:10:13.296Z,51.50
2017-07-08T22:12:39.353Z,50.80
2017-07-08T22:15:05.499Z,50.80
2017-07-08T22:17:32.299Z,51.00
2017-07-08T22:19:58.369Z,51.00
2017-07-08T22:22:24.426Z,51.10
2017-07-08T22:24:51.140Z,51.10
2017-07-08T22:27:17.232Z,51.20
2017-07-08T22:29:43.353Z,51.40
2017-07-08T22:32:09.444Z,51.30
2017-07-08T22:34:35.536Z,51.40
2017-07-08T22:37:01.628Z,51.40
2017-07-08T22:39:27.737Z,51.40
2017-07-08T22:41:53.831Z,51.30
2017-07-08T22:44:19.937Z,51.50
2017-07-08T22:46:46.779Z,51.20
2017-07-08T22:49:12.886Z,51.40
2017-07-08T22:51:38.984Z,51.40
2017-07-08T22:54:05.091Z,51.70
2017-07-08T22:56:31.208Z,51.70
2017-07-08T22:58:57.305Z,51.80
2017-07-08T23:01:23.393Z,51.70
2017-07-08T23:03:49.508Z,51.70
2017-07-08T23:06:15.668Z,52.00
2017-07-08T23:08:41.757Z,51.90
2017-07-08T23:11:07.887Z,51.70
2017-07-08T23:13:33.984Z,51.80
2017-07-08T23:16:00.072Z,51.90
2017-07-08T23:18:26.161Z,52.20
2017-07-08T23:20:52.260Z,51.90
2017-07-08T23:23:18.367Z,52.10
2017-07-08T23:25:44.514Z,52.10
2017-07-08T23:28:10.602Z,52.20
2017-07-08T23:30:36.709Z,52.30
2017-07-08T23:33:02.813Z,52.30
2017-07-08T23:35:28.925Z,52.30
2017-07-08T23:37:55.762Z,52.70
2017-07-08T23:40:22.601Z,53.30
2017-07-08T23:42:48.712Z,52.70
2017-07-08T23:45:14.825Z,52.80
2017-07-08T23:47:47.100Z,52.80
2017-07-08T23:50:13.217Z,52.90
2017-07-08T23:52:39.336Z,52.60
2017-07-08T23:55:05.433Z,52.70
2017-07-08T23:57:31.540Z,52.40
2017-07-08T23:59:57.644Z,52.50
